sensor_id;sensor_type;location;lat;lon;timestamp;temperature;humidity
43862;DHT22;29510;52.140;5.034;2023-02-18T00:08:38;10.10;99.90
43862;DHT22;29510;52.140;5.034;2023-02-18T00:18:39;10.10;99.90
43862;DHT22;29510;52.140;5.034;2023-02-18T00:28:41;10.20;99.90
43862;DHT22;29510;52.140;5.034;2023-02-18T00:38:53;10.20;99.90
43862;DHT22;29510;52.140;5.034;2023-02-18T00:48:55;10.00;99.90
43862;DHT22;29510;52.140;5.034;2023-02-18T00:58:56;9.80;99.90
43862;DHT22;29510;52.140;5.034;2023-02-18T01:08:57;9.80;99.90
43862;DHT22;29510;52.140;5.034;2023-02-18T01:18:58;9.60;99.90
43862;DHT22;29510;52.140;5.034;2023-02-18T01:28:59;9.50;99.90
43862;DHT22;29510;52.140;5.034;2023-02-18T01:39:00;9.50;99.90
43862;DHT22;29510;52.140;5.034;2023-02-18T01:49:02;9.50;99.90
43862;DHT22;29510;52.140;5.034;2023-02-18T01:59:07;9.40;99.90
43862;DHT22;29510;52.140;5.034;2023-02-18T02:09:12;9.40;99.90
43862;DHT22;29510;52.140;5.034;2023-02-18T02:30:12;9.50;99.90
43862;DHT22;29510;52.140;5.034;2023-02-18T02:40:37;9.50;99.90
43862;DHT22;29510;52.140;5.034;2023-02-18T02:50:48;9.50;99.90
43862;DHT22;29510;52.140;5.034;2023-02-18T03:01:08;9.60;99.90
43862;DHT22;29510;52.140;5.034;2023-02-18T03:11:14;9.70;99.90
43862;DHT22;29510;52.140;5.034;2023-02-18T03:31:27;9.90;99.90
43862;DHT22;29510;52.140;5.034;2023-02-18T03:41:29;9.90;99.90
43862;DHT22;29510;52.140;5.034;2023-02-18T03:51:31;9.80;99.90
43862;DHT22;29510;52.140;5.034;2023-02-18T04:01:32;9.80;99.90
43862;DHT22;29510;52.140;5.034;2023-02-18T04:11:36;9.70;99.90
43862;DHT22;29510;52.140;5.034;2023-02-18T04:21:37;9.80;99.90
43862;DHT22;29510;52.140;5.034;2023-02-18T04:31:38;9.90;99.90
43862;DHT22;29510;52.140;5.034;2023-02-18T04:41:39;9.80;99.90
43862;DHT22;29510;52.140;5.034;2023-02-18T04:51:40;9.80;99.90
43862;DHT22;29510;52.140;5.034;2023-02-18T05:01:41;9.90;99.90
43862;DHT22;29510;52.140;5.034;2023-02-18T05:11:42;10.00;99.90
43862;DHT22;29510;52.140;5.034;2023-02-18T05:21:43;10.00;99.90
43862;DHT22;29510;52.140;5.034;2023-02-18T05:31:45;10.10;99.90
43862;DHT22;29510;52.140;5.034;2023-02-18T05:41:46;10.20;99.90
43862;DHT22;29510;52.140;5.034;2023-02-18T05:51:47;10.20;99.90
43862;DHT22;29510;52.140;5.034;2023-02-18T06:01:48;10.30;99.90
43862;DHT22;29510;52.140;5.034;2023-02-18T06:11:49;10.20;99.90
43862;DHT22;29510;52.140;5.034;2023-02-18T06:21:50;10.30;99.90
43862;DHT22;29510;52.140;5.034;2023-02-18T06:31:51;10.30;99.90
43862;DHT22;29510;52.140;5.034;2023-02-18T06:41:52;10.30;99.90
43862;DHT22;29510;52.140;5.034;2023-02-18T06:51:53;10.30;99.90
43862;DHT22;29510;52.140;5.034;2023-02-18T07:01:54;10.20;99.90
43862;DHT22;29510;52.140;5.034;2023-02-18T07:11:55;10.20;99.90
43862;DHT22;29510;52.140;5.034;2023-02-18T07:21:56;10.20;99.90
43862;DHT22;29510;52.140;5.034;2023-02-18T07:31:57;10.30;99.90
43862;DHT22;29510;52.140;5.034;2023-02-18T07:41:58;10.20;99.90
43862;DHT22;29510;52.140;5.034;2023-02-18T07:52:00;10.10;99.90
43862;DHT22;29510;52.140;5.034;2023-02-18T08:02:01;10.10;99.90
43862;DHT22;29510;52.140;5.034;2023-02-18T08:12:03;10.10;99.90
43862;DHT22;29510;52.140;5.034;2023-02-18T08:22:04;9.90;99.90
43862;DHT22;29510;52.140;5.034;2023-02-18T08:32:05;9.80;99.90
43862;DHT22;29510;52.140;5.034;2023-02-18T08:42:06;9.80;99.90
43862;DHT22;29510;52.140;5.034;2023-02-18T08:52:07;9.80;99.90
43862;DHT22;29510;52.140;5.034;2023-02-18T09:02:13;9.90;99.90
43862;DHT22;29510;52.140;5.034;2023-02-18T09:12:14;9.90;99.90
43862;DHT22;29510;52.140;5.034;2023-02-18T09:22:15;10.00;99.90
43862;DHT22;29510;52.140;5.034;2023-02-18T09:32:16;10.10;99.90
43862;DHT22;29510;52.140;5.034;2023-02-18T09:42:20;10.10;99.90
43862;DHT22;29510;52.140;5.034;2023-02-18T09:52:33;10.30;99.90
43862;DHT22;29510;52.140;5.034;2023-02-18T10:02:36;10.30;99.90
43862;DHT22;29510;52.140;5.034;2023-02-18T10:12:38;10.50;98.10
43862;DHT22;29510;52.140;5.034;2023-02-18T10:22:40;10.50;97.30
43862;DHT22;29510;52.140;5.034;2023-02-18T10:32:45;10.60;97.10
43862;DHT22;29510;52.140;5.034;2023-02-18T10:43:25;10.70;98.60
43862;DHT22;29510;52.140;5.034;2023-02-18T10:53:35;10.90;98.00
43862;DHT22;29510;52.140;5.034;2023-02-18T11:03:51;11.00;93.30
43862;DHT22;29510;52.140;5.034;2023-02-18T11:13:54;11.20;95.10
43862;DHT22;29510;52.140;5.034;2023-02-18T11:23:56;11.40;90.40
43862;DHT22;29510;52.140;5.034;2023-02-18T11:34:00;11.50;90.00
43862;DHT22;29510;52.140;5.034;2023-02-18T11:44:06;11.40;92.40
43862;DHT22;29510;52.140;5.034;2023-02-18T11:54:36;11.50;88.70
43862;DHT22;29510;52.140;5.034;2023-02-18T12:04:45;11.70;85.80
43862;DHT22;29510;52.140;5.034;2023-02-18T12:14:47;11.90;72.60
43862;DHT22;29510;52.140;5.034;2023-02-18T12:25:10;11.90;70.80
43862;DHT22;29510;52.140;5.034;2023-02-18T12:46:15;12.20;59.40
43862;DHT22;29510;52.140;5.034;2023-02-18T12:56:46;12.90;48.20
43862;DHT22;29510;52.140;5.034;2023-02-18T13:17:12;12.30;52.60
43862;DHT22;29510;52.140;5.034;2023-02-18T13:27:18;12.50;52.90
43862;DHT22;29510;52.140;5.034;2023-02-18T13:57:36;13.00;34.40
43862;DHT22;29510;52.140;5.034;2023-02-18T14:08:05;13.20;33.70
43862;DHT22;29510;52.140;5.034;2023-02-18T14:59:12;13.20;30.00
43862;DHT22;29510;52.140;5.034;2023-02-18T15:09:18;12.90;38.30
43862;DHT22;29510;52.140;5.034;2023-02-18T15:19:24;12.70;40.80
43862;DHT22;29510;52.140;5.034;2023-02-18T15:29:28;12.60;41.80
43862;DHT22;29510;52.140;5.034;2023-02-18T15:39:30;12.40;42.00
43862;DHT22;29510;52.140;5.034;2023-02-18T15:49:33;12.20;46.30
43862;DHT22;29510;52.140;5.034;2023-02-18T15:59:44;12.10;50.40
43862;DHT22;29510;52.140;5.034;2023-02-18T16:09:46;12.00;55.10
43862;DHT22;29510;52.140;5.034;2023-02-18T16:29:51;11.70;61.50
43862;DHT22;29510;52.140;5.034;2023-02-18T16:39:52;11.60;67.40
43862;DHT22;29510;52.140;5.034;2023-02-18T16:49:55;11.50;74.60
43862;DHT22;29510;52.140;5.034;2023-02-18T16:59:58;11.40;78.20
43862;DHT22;29510;52.140;5.034;2023-02-18T17:09:59;11.30;81.60
43862;DHT22;29510;52.140;5.034;2023-02-18T17:20:00;11.10;91.10
43862;DHT22;29510;52.140;5.034;2023-02-18T17:30:01;11.00;94.50
43862;DHT22;29510;52.140;5.034;2023-02-18T17:40:02;11.00;95.90
43862;DHT22;29510;52.140;5.034;2023-02-18T17:50:04;10.90;99.90
43862;DHT22;29510;52.140;5.034;2023-02-18T18:00:06;10.90;99.90
43862;DHT22;29510;52.140;5.034;2023-02-18T18:10:07;10.70;99.90
43862;DHT22;29510;52.140;5.034;2023-02-18T18:20:09;10.50;99.90
43862;DHT22;29510;52.140;5.034;2023-02-18T18:30:11;10.40;99.90
43862;DHT22;29510;52.140;5.034;2023-02-18T18:40:13;10.30;99.90
43862;DHT22;29510;52.140;5.034;2023-02-18T18:50:15;10.30;99.90
43862;DHT22;29510;52.140;5.034;2023-02-18T19:00:18;10.30;99.90
43862;DHT22;29510;52.140;5.034;2023-02-18T19:10:20;10.40;99.90
43862;DHT22;29510;52.140;5.034;2023-02-18T19:20:24;10.40;99.90
43862;DHT22;29510;52.140;5.034;2023-02-18T19:30:28;10.60;99.90
43862;DHT22;29510;52.140;5.034;2023-02-18T19:40:30;10.60;99.90
43862;DHT22;29510;52.140;5.034;2023-02-18T19:50:31;10.60;99.90
43862;DHT22;29510;52.140;5.034;2023-02-18T20:00:32;10.50;99.90
43862;DHT22;29510;52.140;5.034;2023-02-18T20:10:33;10.50;99.90
43862;DHT22;29510;52.140;5.034;2023-02-18T20:20:34;10.30;99.90
43862;DHT22;29510;52.140;5.034;2023-02-18T20:30:35;10.30;99.90
43862;DHT22;29510;52.140;5.034;2023-02-18T20:40:36;10.20;99.90
43862;DHT22;29510;52.140;5.034;2023-02-18T20:50:37;10.20;99.90
43862;DHT22;29510;52.140;5.034;2023-02-18T21:00:38;10.10;99.90
43862;DHT22;29510;52.140;5.034;2023-02-18T21:10:39;10.00;99.90
43862;DHT22;29510;52.140;5.034;2023-02-18T21:20:40;10.10;99.90
43862;DHT22;29510;52.140;5.034;2023-02-18T21:30:43;10.10;99.90
43862;DHT22;29510;52.140;5.034;2023-02-18T21:40:45;10.10;99.90
43862;DHT22;29510;52.140;5.034;2023-02-18T21:50:47;10.10;99.90
43862;DHT22;29510;52.140;5.034;2023-02-18T22:00:55;10.00;99.90
43862;DHT22;29510;52.140;5.034;2023-02-18T22:10:57;10.10;99.90
43862;DHT22;29510;52.140;5.034;2023-02-18T22:20:58;10.10;99.90
43862;DHT22;29510;52.140;5.034;2023-02-18T22:31:04;10.10;99.90
43862;DHT22;29510;52.140;5.034;2023-02-18T22:41:07;10.10;99.90
43862;DHT22;29510;52.140;5.034;2023-02-18T22:51:11;10.10;99.90
43862;DHT22;29510;52.140;5.034;2023-02-18T23:01:21;10.10;99.90
43862;DHT22;29510;52.140;5.034;2023-02-18T23:11:22;10.10;99.90
43862;DHT22;29510;52.140;5.034;2023-02-18T23:21:23;10.10;99.90
43862;DHT22;29510;52.140;5.034;2023-02-18T23:31:26;10.10;99.90
43862;DHT22;29510;52.140;5.034;2023-02-18T23:41:28;10.00;99.90
43862;DHT22;29510;52.140;5.034;2023-02-18T23:51:29;10.00;99.90
